Time;durP1;ratioP1;P1;durP2;ratioP2;P2;SDS_P1;SDS_P2;PMS_P1;PMS_P2;Temp;Humidity;BMP_temperature;BMP_pressure;BME280_temperature;BME280_humidity;BME280_pressure;Samples;Min_cycle;Max_cycle;Signal;HPM_P1;HPM_P2
2022/07/06 00:01:54;;;;;;;3.38;1.48;;;15.70;99.90;;;;;;5111067;28;20040;-68
2022/07/06 00:04:20;;;;;;;4.10;1.15;;;15.70;99.90;;;;;;5112515;28;20043;-67
2022/07/06 00:06:45;;;;;;;3.60;1.60;;;15.70;99.90;;;;;;5113828;28;20043;-67
2022/07/06 00:09:11;;;;;;;5.88;1.50;;;15.70;99.90;;;;;;5113838;28;20040;-68
2022/07/06 00:11:37;;;;;;;7.30;1.42;;;15.60;99.90;;;;;;5113892;28;20453;-67
2022/07/06 00:14:03;;;;;;;6.70;1.67;;;15.60;99.90;;;;;;5112344;28;20154;-67
2022/07/06 00:16:29;;;;;;;5.57;1.50;;;15.60;99.90;;;;;;5113644;28;20078;-68
2022/07/06 00:18:55;;;;;;;5.35;1.13;;;15.60;99.90;;;;;;5112244;28;20602;-68
2022/07/06 00:21:20;;;;;;;7.38;1.40;;;15.70;99.90;;;;;;5113528;28;20446;-68
2022/07/06 00:23:46;;;;;;;4.50;1.60;;;15.70;99.90;;;;;;5113149;28;20036;-68
2022/07/06 00:26:12;;;;;;;4.55;1.33;;;15.70;99.90;;;;;;5113466;28;20492;-67
2022/07/06 00:28:37;;;;;;;5.30;1.35;;;15.70;99.90;;;;;;5113367;28;20054;-68
2022/07/06 00:31:03;;;;;;;6.43;1.90;;;15.70;99.90;;;;;;5113365;28;20071;-68
2022/07/06 00:33:28;;;;;;;3.47;1.40;;;15.60;99.90;;;;;;5113106;28;20039;-68
2022/07/06 00:35:54;;;;;;;4.45;1.70;;;15.70;99.90;;;;;;5113222;28;20226;-68
2022/07/06 00:38:20;;;;;;;3.10;1.42;;;15.70;99.90;;;;;;5113202;28;20039;-68
2022/07/06 00:40:45;;;;;;;2.67;1.50;;;15.70;99.90;;;;;;5113542;28;20046;-67
2022/07/06 00:43:11;;;;;;;5.72;1.25;;;15.70;99.90;;;;;;5112015;28;20050;-68
2022/07/06 00:45:36;;;;;;;6.90;1.70;;;15.60;99.90;;;;;;5113152;28;20039;-68
2022/07/06 00:48:02;;;;;;;7.38;1.27;;;15.70;99.90;;;;;;5113400;28;20036;-68
2022/07/06 00:50:28;;;;;;;5.72;1.30;;;15.60;99.90;;;;;;5113032;28;20040;-68
2022/07/06 00:53:12;;;;;;;5.78;1.50;;;15.70;99.90;;;;;;5111316;28;20047;-68
2022/07/06 00:55:39;;;;;;;4.20;1.30;;;15.60;99.90;;;;;;5113047;28;20112;-67
2022/07/06 00:58:06;;;;;;;3.80;1.27;;;15.60;99.90;;;;;;5111531;28;20484;-68
2022/07/06 01:00:33;;;;;;;5.75;1.63;;;15.50;99.90;;;;;;5111438;28;20035;-68
2022/07/06 01:02:58;;;;;;;5.50;1.65;;;15.60;99.90;;;;;;5112501;28;20043;-67
2022/07/06 01:05:24;;;;;;;5.93;1.15;;;15.60;99.90;;;;;;5112639;28;20488;-67
2022/07/06 01:07:52;;;;;;;6.20;1.65;;;15.60;99.90;;;;;;5112814;28;20035;-67
2022/07/06 01:10:19;;;;;;;5.20;1.70;;;15.60;99.90;;;;;;5111337;28;20078;-67
2022/07/06 01:12:47;;;;;;;7.10;1.55;;;15.60;99.90;;;;;;5112093;28;20081;-67
2022/07/06 01:15:18;;;;;;;2.42;1.27;;;15.60;99.90;;;;;;5112127;28;20058;-68
2022/07/06 01:17:44;;;;;;;4.40;1.33;;;15.60;99.90;;;;;;5111090;28;20054;-67
2022/07/06 01:20:16;;;;;;;5.28;1.50;;;15.60;99.90;;;;;;5112349;28;20035;-68
2022/07/06 01:22:43;;;;;;;3.53;1.55;;;15.60;99.90;;;;;;5112063;28;20444;-68
2022/07/06 01:25:09;;;;;;;4.90;1.30;;;15.60;99.90;;;;;;5093786;28;20036;-68
2022/07/06 01:27:37;;;;;;;5.50;1.63;;;15.60;99.90;;;;;;5112387;28;20065;-68
2022/07/06 01:30:08;;;;;;;6.80;2.03;;;15.60;99.90;;;;;;5112210;28;20043;-68
2022/07/06 01:32:34;;;;;;;2.92;1.30;;;15.60;99.90;;;;;;5111975;28;20047;-68
2022/07/06 01:35:00;;;;;;;5.20;1.65;;;15.60;99.90;;;;;;5111160;28;20047;-68
2022/07/06 01:37:26;;;;;;;5.20;1.38;;;15.60;99.90;;;;;;5110711;28;20080;-69
2022/07/06 01:39:51;;;;;;;3.28;1.17;;;15.60;99.90;;;;;;5110662;28;20082;-69
2022/07/06 01:42:17;;;;;;;4.53;1.55;;;15.60;99.90;;;;;;5110408;28;20515;-69
2022/07/06 01:44:44;;;;;;;2.95;1.35;;;15.60;99.90;;;;;;5110641;28;20051;-67
2022/07/06 01:47:10;;;;;;;4.60;1.30;;;15.60;99.90;;;;;;5110523;28;20043;-67
2022/07/06 01:49:35;;;;;;;3.67;1.70;;;15.60;99.90;;;;;;5110387;28;20048;-68
2022/07/06 01:52:01;;;;;;;7.15;1.50;;;15.60;99.90;;;;;;5111925;28;20043;-68
2022/07/06 01:54:27;;;;;;;3.08;1.30;;;15.50;99.90;;;;;;5111534;28;20600;-68
2022/07/06 01:56:52;;;;;;;5.80;1.52;;;15.60;99.90;;;;;;5111723;28;20027;-67
2022/07/06 01:59:18;;;;;;;8.00;1.40;;;15.60;99.90;;;;;;5111525;28;20036;-68
2022/07/06 02:01:43;;;;;;;7.10;1.70;;;15.60;99.90;;;;;;5111561;28;20042;-68
2022/07/06 02:04:09;;;;;;;6.65;1.63;;;15.60;99.90;;;;;;5110148;28;20032;-68
2022/07/06 02:06:34;;;;;;;5.65;1.58;;;15.60;99.90;;;;;;5110131;28;20524;-68
2022/07/06 02:09:00;;;;;;;4.60;1.60;;;15.60;99.90;;;;;;5110159;28;20051;-68
2022/07/06 02:11:27;;;;;;;3.38;1.50;;;15.60;99.90;;;;;;5111515;28;20085;-68
2022/07/06 02:13:52;;;;;;;5.35;1.55;;;15.60;99.90;;;;;;5111106;28;20122;-68
2022/07/06 02:16:18;;;;;;;4.97;1.52;;;15.50;99.90;;;;;;5111239;28;20089;-68
2022/07/06 02:18:43;;;;;;;7.22;1.55;;;15.50;99.90;;;;;;5111317;28;20059;-69
2022/07/06 02:21:09;;;;;;;9.15;1.58;;;15.60;99.90;;;;;;5109910;28;20039;-68
2022/07/06 02:23:35;;;;;;;4.88;1.52;;;15.60;99.90;;;;;;5109649;28;20503;-68
2022/07/06 02:26:00;;;;;;;3.92;1.45;;;15.60;99.90;;;;;;5109863;28;20060;-68
2022/07/06 02:28:26;;;;;;;5.15;1.58;;;15.50;99.90;;;;;;5110056;28;20050;-68
2022/07/06 02:30:51;;;;;;;5.55;1.73;;;15.50;99.90;;;;;;5109606;28;20047;-68
2022/07/06 02:33:17;;;;;;;3.22;1.83;;;15.50;99.90;;;;;;5111044;28;20040;-68
2022/07/06 02:35:43;;;;;;;4.55;1.73;;;15.50;99.90;;;;;;5109559;28;20399;-68
2022/07/06 02:38:12;;;;;;;4.45;2.00;;;15.40;99.90;;;;;;5109875;28;20246;-69
2022/07/06 02:40:38;;;;;;;5.00;2.08;;;15.50;99.90;;;;;;5111319;28;20067;-69
2022/07/06 02:43:04;;;;;;;3.20;1.80;;;15.40;99.90;;;;;;5110678;28;20449;-69
2022/07/06 02:45:30;;;;;;;12.57;1.65;;;15.40;99.90;;;;;;5109378;28;20043;-69
2022/07/06 02:47:57;;;;;;;5.35;1.65;;;15.40;99.90;;;;;;5111139;28;20042;-69
2022/07/06 02:50:23;;;;;;;5.47;2.45;;;15.40;99.90;;;;;;5109360;28;20086;-69
2022/07/06 02:52:49;;;;;;;5.47;1.77;;;15.40;99.90;;;;;;5109254;28;20135;-69
2022/07/06 02:55:14;;;;;;;5.93;1.75;;;15.50;99.90;;;;;;5109306;28;20808;-69
2022/07/06 02:57:40;;;;;;;3.92;1.40;;;15.50;99.90;;;;;;5109353;28;20044;-69
2022/07/06 03:00:07;;;;;;;5.32;1.98;;;15.50;99.90;;;;;;5110700;28;20086;-69
2022/07/06 03:02:32;;;;;;;4.60;1.85;;;15.50;99.90;;;;;;5109291;28;20444;-69
2022/07/06 03:04:58;;;;;;;5.22;1.50;;;15.50;99.90;;;;;;5110713;28;20118;-67
2022/07/06 03:07:24;;;;;;;5.68;1.70;;;15.50;99.90;;;;;;5109164;28;20071;-69
2022/07/06 03:09:49;;;;;;;4.78;1.52;;;15.50;99.90;;;;;;5110653;28;20142;-69
2022/07/06 03:12:15;;;;;;;5.40;1.85;;;15.50;99.90;;;;;;5110327;28;20506;-69
2022/07/06 03:14:41;;;;;;;5.07;1.58;;;15.40;99.90;;;;;;5110512;28;20043;-69
2022/07/06 03:17:07;;;;;;;3.20;1.75;;;15.40;99.90;;;;;;5110325;28;20036;-69
2022/07/06 03:19:33;;;;;;;5.70;1.80;;;15.50;99.90;;;;;;5110752;28;20031;-69
2022/07/06 03:21:58;;;;;;;5.70;2.03;;;15.40;99.90;;;;;;5108983;28;20036;-69
2022/07/06 03:24:24;;;;;;;3.65;1.48;;;15.50;99.90;;;;;;5110234;28;20471;-69
2022/07/06 03:26:49;;;;;;;5.45;1.80;;;15.50;99.90;;;;;;5110254;28;20077;-69
2022/07/06 03:29:15;;;;;;;4.93;1.92;;;15.40;99.90;;;;;;5106866;28;20039;-69
2022/07/06 03:31:41;;;;;;;6.78;2.10;;;15.40;99.90;;;;;;5105925;28;20774;-69
2022/07/06 03:34:06;;;;;;;4.13;1.50;;;15.50;99.90;;;;;;5105935;28;20051;-69
2022/07/06 03:36:32;;;;;;;7.55;1.70;;;15.50;99.90;;;;;;5106988;28;20040;-69
2022/07/06 03:38:57;;;;;;;2.78;1.75;;;15.40;99.90;;;;;;5112484;28;20035;-69
2022/07/06 03:41:23;;;;;;;4.10;1.88;;;15.40;99.90;;;;;;5112276;28;20115;-69
2022/07/06 03:43:49;;;;;;;4.80;1.52;;;15.50;99.90;;;;;;5111018;28;20115;-69
2022/07/06 03:46:14;;;;;;;5.28;1.50;;;15.40;99.90;;;;;;5114183;28;20044;-69
2022/07/06 03:48:40;;;;;;;3.28;1.33;;;15.40;99.90;;;;;;5111777;28;20082;-69
2022/07/06 03:51:06;;;;;;;7.55;1.80;;;15.40;99.90;;;;;;5111922;28;20059;-69
2022/07/06 03:53:31;;;;;;;5.53;1.50;;;15.40;99.90;;;;;;5111903;28;20044;-69
2022/07/06 03:58:41;;;;;;;3.30;1.63;;;15.50;99.90;;;;;;5114162;28;20122;-69
2022/07/06 04:01:07;;;;;;;2.42;1.45;;;15.40;99.90;;;;;;5114101;28;20126;-69
2022/07/06 04:03:32;;;;;;;6.20;1.42;;;15.50;99.90;;;;;;5113761;28;20035;-69
2022/07/06 04:05:58;;;;;;;2.55;1.65;;;15.50;99.90;;;;;;5113936;28;20044;-69
2022/07/06 04:08:23;;;;;;;6.68;1.55;;;15.50;99.90;;;;;;5113943;28;20062;-69
2022/07/06 04:10:49;;;;;;;2.90;1.33;;;15.50;99.90;;;;;;5113487;28;20039;-69
2022/07/06 04:13:15;;;;;;;4.68;1.60;;;15.50;99.90;;;;;;5113495;28;20194;-69
2022/07/06 04:15:40;;;;;;;5.78;1.30;;;15.50;99.90;;;;;;5113851;28;20507;-69
2022/07/06 04:18:06;;;;;;;3.03;1.40;;;15.50;99.90;;;;;;5113649;28;20046;-69
2022/07/06 04:20:31;;;;;;;3.92;1.40;;;15.50;99.90;;;;;;5112206;28;20078;-69
2022/07/06 04:22:58;;;;;;;6.43;1.40;;;15.50;99.90;;;;;;5113428;28;20043;-69
2022/07/06 04:25:24;;;;;;;7.07;1.50;;;15.50;99.90;;;;;;5113317;28;20455;-69
2022/07/06 04:27:50;;;;;;;6.28;1.40;;;15.50;99.90;;;;;;5113755;28;20074;-69
2022/07/06 04:30:15;;;;;;;6.15;1.70;;;15.50;99.90;;;;;;5095135;28;20492;-69
2022/07/06 04:32:41;;;;;;;5.72;1.77;;;15.60;99.90;;;;;;5113317;28;20540;-69
2022/07/06 04:35:07;;;;;;;6.45;2.13;;;15.60;99.90;;;;;;5112125;28;20057;-69
2022/07/06 04:37:33;;;;;;;8.63;1.40;;;15.60;99.90;;;;;;5112122;28;20089;-67
2022/07/06 04:39:58;;;;;;;4.70;1.48;;;15.60;99.90;;;;;;5111908;28;20500;-67
2022/07/06 04:42:24;;;;;;;6.80;1.20;;;15.60;99.90;;;;;;5111797;28;20043;-68
2022/07/06 04:44:51;;;;;;;5.07;1.63;;;15.70;99.90;;;;;;5111845;28;20054;-68
2022/07/06 04:47:17;;;;;;;6.25;1.48;;;15.80;99.90;;;;;;5113003;28;20078;-68
2022/07/06 04:49:43;;;;;;;3.78;1.30;;;15.90;99.90;;;;;;5110619;28;20093;-68
2022/07/06 04:52:09;;;;;;;9.88;1.33;;;15.80;99.90;;;;;;5111835;28;20114;-68
2022/07/06 04:54:35;;;;;;;7.72;1.52;;;16.00;99.90;;;;;;5111525;28;20122;-68
2022/07/06 04:57:00;;;;;;;8.90;1.45;;;16.10;99.90;;;;;;5111703;28;20134;-68
2022/07/06 04:59:26;;;;;;;7.38;1.42;;;16.00;99.90;;;;;;5111774;28;20035;-68
2022/07/06 05:01:51;;;;;;;7.45;1.27;;;16.00;99.90;;;;;;5112651;28;20108;-68
2022/07/06 05:04:19;;;;;;;2.97;1.23;;;16.10;99.90;;;;;;5111340;28;20120;-69
2022/07/06 05:06:45;;;;;;;9.68;1.40;;;16.20;99.90;;;;;;5112783;28;20066;-69
2022/07/06 05:09:12;;;;;;;6.18;1.70;;;16.30;99.90;;;;;;5112689;28;20075;-68
2022/07/06 05:11:37;;;;;;;7.38;1.30;;;16.50;99.90;;;;;;5111370;28;20055;-69
2022/07/06 05:14:03;;;;;;;4.05;1.40;;;16.70;99.90;;;;;;5110942;28;20035;-69
2022/07/06 05:16:29;;;;;;;2.42;0.90;;;16.70;99.90;;;;;;5112584;28;20032;-68
2022/07/06 05:18:55;;;;;;;3.17;1.30;;;16.90;99.90;;;;;;5111176;28;20392;-68
2022/07/06 05:21:20;;;;;;;3.72;1.25;;;17.00;99.90;;;;;;5111054;28;20051;-68
2022/07/06 05:23:46;;;;;;;4.78;1.27;;;17.10;99.90;;;;;;5110692;28;20409;-68
2022/07/06 05:26:11;;;;;;;7.47;1.25;;;17.10;99.90;;;;;;5111283;28;20634;-69
2022/07/06 05:28:37;;;;;;;6.30;1.10;;;17.10;99.90;;;;;;5112492;27;20047;-68
2022/07/06 05:31:02;;;;;;;6.15;1.15;;;17.20;99.90;;;;;;5112379;28;20402;-68
2022/07/06 05:33:28;;;;;;;4.50;0.75;;;17.40;99.90;;;;;;5110582;28;20040;-69
2022/07/06 05:35:54;;;;;;;11.18;1.08;;;17.50;99.90;;;;;;5112084;28;20032;-69
2022/07/06 05:38:20;;;;;;;6.35;1.20;;;17.60;99.90;;;;;;5110714;28;20096;-69
2022/07/06 05:40:46;;;;;;;8.88;1.00;;;17.70;99.90;;;;;;5112321;28;20445;-68
2022/07/06 05:43:11;;;;;;;3.45;1.00;;;17.90;99.90;;;;;;5111883;28;20124;-68
2022/07/06 05:45:37;;;;;;;6.78;1.00;;;18.10;99.90;;;;;;5112008;28;20108;-68
2022/07/06 05:50:47;;;;;;;3.00;0.65;;;18.20;99.90;;;;;;5111836;28;20059;-67
2022/07/06 05:53:12;;;;;;;7.25;1.10;;;18.40;99.90;;;;;;5111819;28;20395;-68
2022/07/06 05:55:38;;;;;;;6.68;1.27;;;18.50;99.90;;;;;;5110413;28;20039;-67
2022/07/06 05:58:03;;;;;;;4.68;0.98;;;18.70;99.90;;;;;;5111934;28;20082;-67
2022/07/06 06:00:29;;;;;;;4.93;0.77;;;18.70;99.90;;;;;;5111388;28;20036;-67
2022/07/06 06:02:55;;;;;;;1.85;0.88;;;18.80;99.90;;;;;;5111480;28;20517;-68
2022/07/06 06:05:21;;;;;;;6.47;0.95;;;19.00;99.90;;;;;;5110318;28;20047;-67
2022/07/06 06:07:48;;;;;;;7.70;0.70;;;19.10;99.90;;;;;;5110570;28;20088;-68
2022/07/06 06:10:14;;;;;;;2.70;0.88;;;18.80;99.90;;;;;;5111673;28;20043;-66
2022/07/06 06:12:41;;;;;;;4.05;1.13;;;18.60;99.90;;;;;;5111391;28;20134;-68
2022/07/06 06:15:09;;;;;;;3.38;0.65;;;18.50;99.90;;;;;;5111463;28;20042;-67
2022/07/06 06:17:36;;;;;;;4.63;0.65;;;18.40;99.90;;;;;;5110128;28;20039;-67
2022/07/06 06:20:03;;;;;;;6.60;0.93;;;18.40;99.90;;;;;;5111323;28;20057;-67
2022/07/06 06:22:28;;;;;;;4.70;0.82;;;18.20;99.90;;;;;;5110867;28;20046;-68
2022/07/06 06:24:54;;;;;;;4.97;1.05;;;18.20;99.90;;;;;;5111433;28;20039;-67
2022/07/06 06:27:19;;;;;;;4.32;0.90;;;18.10;99.90;;;;;;5109815;28;20039;-67
2022/07/06 06:29:45;;;;;;;4.78;0.75;;;18.10;99.90;;;;;;5111263;28;20054;-68
2022/07/06 06:32:11;;;;;;;3.17;0.68;;;18.10;99.90;;;;;;5109550;28;20040;-67
2022/07/06 06:34:38;;;;;;;2.92;0.80;;;18.10;99.90;;;;;;5110911;28;20487;-68
2022/07/06 06:37:04;;;;;;;3.55;0.70;;;18.00;99.90;;;;;;5111092;28;20040;-67
2022/07/06 06:39:29;;;;;;;4.60;1.20;;;17.80;99.90;;;;;;5111200;28;20043;-67
2022/07/06 06:41:55;;;;;;;4.35;1.05;;;17.90;99.90;;;;;;5111083;28;20043;-67
2022/07/06 06:44:22;;;;;;;7.50;0.93;;;17.90;99.90;;;;;;5109489;28;20051;-67
2022/07/06 06:46:49;;;;;;;3.60;0.70;;;18.00;99.90;;;;;;5109625;28;20502;-67
2022/07/06 06:49:15;;;;;;;5.47;0.52;;;17.90;99.90;;;;;;5109464;28;20036;-67
2022/07/06 06:51:40;;;;;;;3.97;0.80;;;18.00;99.90;;;;;;5109240;28;20040;-67
2022/07/06 06:54:06;;;;;;;1.80;0.80;;;18.10;99.90;;;;;;5109601;28;20364;-67
2022/07/06 06:56:32;;;;;;;0.90;0.50;;;18.00;99.90;;;;;;5110683;28;20040;-67
2022/07/06 06:58:57;;;;;;;7.07;1.00;;;18.00;99.90;;;;;;5110803;28;20031;-68
2022/07/06 07:01:23;;;;;;;2.55;0.73;;;18.00;99.90;;;;;;5110835;28;20570;-67
2022/07/06 07:03:50;;;;;;;3.88;0.80;;;18.10;99.90;;;;;;5110410;28;20094;-67
2022/07/06 07:06:16;;;;;;;6.95;1.05;;;18.20;99.90;;;;;;5110651;28;20031;-68
2022/07/06 07:08:42;;;;;;;3.92;0.65;;;18.20;99.90;;;;;;5109265;28;20047;-68
2022/07/06 07:11:07;;;;;;;4.35;0.90;;;18.00;99.90;;;;;;5103049;28;20036;-71
2022/07/06 07:13:33;;;;;;;4.88;0.80;;;18.00;99.90;;;;;;5071694;28;20468;-71
2022/07/06 07:15:58;;;;;;;2.30;0.80;;;18.10;99.90;;;;;;5089890;28;20051;-70
2022/07/06 07:18:24;;;;;;;2.42;1.02;;;18.00;99.90;;;;;;5094237;28;20036;-69
2022/07/06 07:20:49;;;;;;;2.90;0.60;;;18.20;99.90;;;;;;5088752;28;20048;-70
2022/07/06 07:23:15;;;;;;;4.65;0.95;;;18.20;99.90;;;;;;5092541;28;20044;-70
2022/07/06 07:25:40;;;;;;;7.75;0.88;;;18.30;99.90;;;;;;5088493;28;20497;-71
2022/07/06 07:28:06;;;;;;;3.17;0.70;;;18.30;99.90;;;;;;5073031;28;20532;-70
2022/07/06 07:30:32;;;;;;;2.80;0.70;;;18.30;99.90;;;;;;5073764;28;20477;-70
2022/07/06 07:33:00;;;;;;;2.20;0.60;;;18.30;99.90;;;;;;5073586;28;20032;-71
2022/07/06 07:35:26;;;;;;;3.63;0.70;;;18.20;99.90;;;;;;5073914;28;20048;-72
2022/07/06 07:37:51;;;;;;;5.70;0.95;;;18.40;99.90;;;;;;5072869;28;20071;-71
2022/07/06 07:40:17;;;;;;;5.82;1.38;;;18.40;99.90;;;;;;5073994;28;20040;-70
2022/07/06 07:42:43;;;;;;;2.15;0.70;;;18.40;99.90;;;;;;5073523;28;20464;-70
2022/07/06 07:45:09;;;;;;;4.15;0.80;;;18.40;99.90;;;;;;5073523;28;20085;-71
2022/07/06 07:47:35;;;;;;;12.20;0.90;;;18.50;99.90;;;;;;5072114;28;20121;-71
2022/07/06 07:50:00;;;;;;;6.38;0.80;;;18.50;99.90;;;;;;5073388;28;20044;-71
2022/07/06 07:52:26;;;;;;;4.63;0.88;;;18.60;99.90;;;;;;5071771;28;20040;-71
2022/07/06 07:54:52;;;;;;;2.20;0.70;;;18.60;99.90;;;;;;5073448;28;20117;-70
2022/07/06 07:57:17;;;;;;;3.60;0.88;;;18.80;99.90;;;;;;5071962;28;20420;-70
2022/07/06 07:59:43;;;;;;;4.63;0.63;;;18.70;99.90;;;;;;5072074;28;20033;-71
2022/07/06 08:02:09;;;;;;;5.97;0.70;;;18.80;99.90;;;;;;5073244;28;20028;-71
2022/07/06 08:04:34;;;;;;;2.88;0.80;;;18.70;99.90;;;;;;5071498;28;20055;-70
2022/07/06 08:07:00;;;;;;;3.15;0.80;;;18.70;99.90;;;;;;5071783;28;20048;-71
2022/07/06 08:09:26;;;;;;;7.13;1.00;;;18.80;99.90;;;;;;5073335;28;20382;-70
2022/07/06 08:11:51;;;;;;;5.13;0.70;;;18.80;99.90;;;;;;5071788;28;20147;-69
2022/07/06 08:14:17;;;;;;;4.78;1.20;;;18.90;99.90;;;;;;5072901;28;20043;-70
2022/07/06 08:16:43;;;;;;;3.58;0.90;;;19.00;99.90;;;;;;5071468;28;20039;-70
2022/07/06 08:19:09;;;;;;;3.20;0.80;;;19.10;99.90;;;;;;5073123;28;20048;-70
2022/07/06 08:21:35;;;;;;;3.92;0.95;;;19.10;99.90;;;;;;5073021;28;20036;-70
2022/07/06 08:24:01;;;;;;;3.08;0.68;;;19.40;99.90;;;;;;5072512;28;20124;-68
2022/07/06 08:26:27;;;;;;;4.40;0.60;;;19.30;99.90;;;;;;5072679;28;20484;-70
2022/07/06 08:28:53;;;;;;;5.50;1.05;;;19.30;99.90;;;;;;5071651;28;20381;-68
2022/07/06 08:31:18;;;;;;;3.70;0.57;;;19.40;99.90;;;;;;5072592;28;20044;-68
2022/07/06 08:33:44;;;;;;;3.85;0.95;;;19.50;99.90;;;;;;5072625;28;20408;-68
2022/07/06 08:36:10;;;;;;;3.20;0.80;;;19.30;99.90;;;;;;5071289;28;20610;-68
2022/07/06 08:38:35;;;;;;;3.90;0.75;;;19.40;99.90;;;;;;5072837;28;20150;-68
2022/07/06 08:41:02;;;;;;;5.95;0.77;;;19.40;99.90;;;;;;5072353;28;20040;-68
2022/07/06 08:43:27;;;;;;;3.20;0.70;;;19.50;99.90;;;;;;5072674;28;20041;-68
2022/07/06 08:45:54;;;;;;;3.90;0.68;;;19.40;99.90;;;;;;5072513;28;20040;-67
2022/07/06 08:48:22;;;;;;;2.75;0.80;;;19.40;99.90;;;;;;5072622;28;20048;-68
2022/07/06 08:50:49;;;;;;;4.82;0.82;;;19.40;99.90;;;;;;5072459;28;20041;-67
2022/07/06 08:53:16;;;;;;;2.10;0.63;;;19.40;99.90;;;;;;5070987;28;20032;-68
2022/07/06 08:55:42;;;;;;;4.22;0.85;;;19.60;99.90;;;;;;5088045;28;20481;-68
2022/07/06 08:58:08;;;;;;;4.40;0.60;;;19.60;99.90;;;;;;5072284;28;20036;-68
2022/07/06 09:00:35;;;;;;;1.98;0.45;;;19.40;99.90;;;;;;5072351;28;20127;-68
2022/07/06 09:03:01;;;;;;;0.90;0.50;;;19.50;99.90;;;;;;5072093;28;20110;-68
2022/07/06 09:05:28;;;;;;;1.95;0.50;;;19.50;99.90;;;;;;5072302;28;20040;-70
2022/07/06 09:07:56;;;;;;;1.35;0.40;;;19.70;99.90;;;;;;5072223;28;20047;-70
2022/07/06 09:10:22;;;;;;;7.97;0.52;;;19.80;99.90;;;;;;5072037;28;20457;-70
2022/07/06 09:12:48;;;;;;;4.38;0.70;;;20.00;99.90;;;;;;5071755;28;20052;-71
2022/07/06 09:15:14;;;;;;;2.50;0.73;;;19.90;99.90;;;;;;5070397;28;20047;-71
2022/07/06 09:17:42;;;;;;;3.00;0.50;;;19.90;99.90;;;;;;5072051;28;20073;-69
2022/07/06 09:20:08;;;;;;;3.50;0.70;;;20.00;99.90;;;;;;5087643;28;20135;-67
2022/07/06 09:22:34;;;;;;;3.17;1.27;;;20.20;99.90;;;;;;5071749;28;20104;-68
2022/07/06 09:25:05;;;;;;;3.65;0.98;;;20.10;99.90;;;;;;5070262;28;20049;-69
2022/07/06 09:27:31;;;;;;;5.93;0.60;;;20.30;99.90;;;;;;5070194;28;20064;-69
2022/07/06 09:30:01;;;;;;;2.38;0.60;;;20.20;99.90;;;;;;5087137;28;20161;-68
2022/07/06 09:32:27;;;;;;;4.07;1.27;;;20.00;99.90;;;;;;5091687;28;20047;-68
2022/07/06 09:34:54;;;;;;;2.72;0.60;;;20.10;99.90;;;;;;5072878;28;20044;-69
2022/07/06 09:37:23;;;;;;;3.03;0.60;;;20.20;99.90;;;;;;5090481;28;20107;-70
2022/07/06 09:39:49;;;;;;;2.30;0.45;;;20.40;99.90;;;;;;5091750;28;20115;-68
2022/07/06 09:42:14;;;;;;;4.50;0.65;;;20.30;99.90;;;;;;5091479;28;20543;-71
2022/07/06 09:44:41;;;;;;;1.33;0.45;;;20.40;99.90;;;;;;5090536;28;20044;-69
2022/07/06 09:47:09;;;;;;;1.98;0.57;;;20.50;99.90;;;;;;5090130;28;20036;-69
2022/07/06 09:49:39;;;;;;;1.50;0.60;;;20.30;99.90;;;;;;5090202;28;20530;-69
2022/07/06 09:52:08;;;;;;;0.60;0.47;;;20.40;99.90;;;;;;5090170;28;20054;-69
2022/07/06 09:54:34;;;;;;;1.85;0.50;;;20.30;99.90;;;;;;5089945;28;20119;-68
2022/07/06 09:57:01;;;;;;;1.55;0.35;;;20.30;99.90;;;;;;5091578;28;20060;-70
2022/07/06 09:59:30;;;;;;;1.70;0.50;;;20.30;99.90;;;;;;5093010;28;20044;-69
2022/07/06 10:01:58;;;;;;;3.67;0.60;;;20.10;99.90;;;;;;5092044;28;20048;-69
2022/07/06 10:04:26;;;;;;;1.85;0.47;;;19.80;99.50;;;;;;5091185;28;20052;-70
2022/07/06 10:06:52;;;;;;;3.67;0.60;;;19.70;99.70;;;;;;5091063;28;20492;-69
2022/07/06 10:09:22;;;;;;;3.63;0.55;;;19.70;99.90;;;;;;5091187;28;20488;-69
2022/07/06 10:11:50;;;;;;;11.95;1.02;;;19.80;99.90;;;;;;5089744;28;20067;-68
2022/07/06 10:14:19;;;;;;;1.45;0.60;;;20.00;99.60;;;;;;5091023;28;20039;-68
2022/07/06 10:16:46;;;;;;;3.85;0.70;;;19.90;99.90;;;;;;5089484;28;20044;-68
2022/07/06 10:19:13;;;;;;;6.10;0.57;;;20.00;99.90;;;;;;5091153;28;20040;-68
2022/07/06 10:21:39;;;;;;;1.55;0.50;;;20.00;99.90;;;;;;5089559;28;20074;-68
2022/07/06 10:24:07;;;;;;;0.93;0.57;;;20.10;99.90;;;;;;5089524;28;20147;-67
2022/07/06 10:26:34;;;;;;;4.28;0.50;;;20.10;99.10;;;;;;5090943;28;20116;-68
2022/07/06 10:29:01;;;;;;;1.25;0.30;;;20.30;99.40;;;;;;5089489;28;20036;-67
2022/07/06 10:31:30;;;;;;;3.97;0.32;;;20.30;99.20;;;;;;5090623;28;20514;-66
2022/07/06 10:34:00;;;;;;;1.88;0.43;;;20.10;98.50;;;;;;5090588;28;20044;-69
2022/07/06 10:36:27;;;;;;;8.68;0.50;;;20.20;99.00;;;;;;5090644;28;20040;-69
2022/07/06 10:38:53;;;;;;;0.63;0.40;;;20.20;99.50;;;;;;5090579;28;20488;-69
2022/07/06 10:41:31;;;;;;;1.55;0.52;;;20.60;99.40;;;;;;5089429;28;20434;-69
2022/07/06 10:43:58;;;;;;;0.93;0.40;;;20.80;99.10;;;;;;5099888;28;20042;-68
2022/07/06 10:46:28;;;;;;;4.50;0.60;;;21.20;99.00;;;;;;5091003;28;20039;-68
2022/07/06 10:48:54;;;;;;;1.60;0.50;;;21.10;98.90;;;;;;5079470;28;20047;-70
2022/07/06 10:51:25;;;;;;;2.38;0.50;;;21.20;98.70;;;;;;5073929;28;20059;-69
2022/07/06 10:53:59;;;;;;;1.23;0.40;;;21.30;98.00;;;;;;5070191;28;20052;-69
2022/07/06 10:56:53;;;;;;;3.42;0.40;;;21.40;97.50;;;;;;5070164;28;20403;-69
2022/07/06 10:59:21;;;;;;;3.17;0.50;;;21.70;96.70;;;;;;5027444;28;20405;-70
2022/07/06 11:02:15;;;;;;;2.90;0.55;;;21.40;97.70;;;;;;5010746;28;20072;-70
2022/07/06 11:04:47;;;;;;;3.65;0.60;;;21.50;97.30;;;;;;5027283;28;20057;-70
2022/07/06 11:07:19;;;;;;;1.42;0.40;;;21.60;97.70;;;;;;5027670;28;20046;-71
2022/07/06 11:09:59;;;;;;;0.70;0.50;;;21.60;97.80;;;;;;5011028;28;20072;-69
2022/07/06 11:12:25;;;;;;;1.65;0.60;;;21.60;97.60;;;;;;5027432;28;20385;-69
2022/07/06 11:14:52;;;;;;;3.13;0.60;;;21.70;97.90;;;;;;5027514;28;20199;-70
2022/07/06 11:17:18;;;;;;;0.75;0.57;;;21.80;97.50;;;;;;5010952;28;20050;-70
2022/07/06 11:20:10;;;;;;;1.83;0.47;;;21.60;96.90;;;;;;5011433;28;20086;-70
2022/07/06 11:22:39;;;;;;;4.30;0.90;;;21.60;97.70;;;;;;5010964;28;20136;-68
2022/07/06 11:25:05;;;;;;;3.80;0.60;;;21.60;97.90;;;;;;5011099;28;20045;-69
2022/07/06 11:27:34;;;;;;;2.67;0.80;;;21.70;97.80;;;;;;5027689;28;20108;-69
2022/07/06 11:30:00;;;;;;;4.57;0.50;;;21.60;97.80;;;;;;5010838;28;20119;-69
2022/07/06 11:32:26;;;;;;;5.28;0.75;;;21.50;98.40;;;;;;5010663;28;20465;-69
2022/07/06 11:34:53;;;;;;;2.15;0.40;;;21.40;98.10;;;;;;5017127;28;20231;-68
2022/07/06 11:37:20;;;;;;;4.60;0.60;;;21.50;97.80;;;;;;5069750;28;20044;-67
2022/07/06 11:39:47;;;;;;;5.93;0.82;;;21.30;97.70;;;;;;5069964;28;20048;-68
2022/07/06 11:42:18;;;;;;;2.80;0.68;;;21.30;97.30;;;;;;5068298;28;20102;-68
2022/07/06 11:44:44;;;;;;;2.22;0.50;;;21.30;97.10;;;;;;5069860;28;20044;-68
2022/07/06 11:47:11;;;;;;;4.55;0.60;;;21.40;97.30;;;;;;5068328;28;20122;-68
2022/07/06 11:49:39;;;;;;;3.80;0.60;;;21.40;97.50;;;;;;5069881;28;20028;-69
2022/07/06 11:52:12;;;;;;;1.60;0.30;;;21.20;97.50;;;;;;5068469;28;20066;-69
2022/07/06 11:54:39;;;;;;;2.78;0.90;;;21.40;98.10;;;;;;5068659;28;20396;-70
2022/07/06 11:57:09;;;;;;;2.92;0.50;;;21.50;97.90;;;;;;5068320;28;20036;-70
2022/07/06 11:59:36;;;;;;;2.35;0.70;;;21.60;97.90;;;;;;5071928;28;20041;-70
2022/07/06 12:02:06;;;;;;;0.98;0.40;;;21.50;97.80;;;;;;5071901;28;20515;-69
2022/07/06 12:04:34;;;;;;;3.70;0.60;;;21.50;98.50;;;;;;5071687;28;20040;-69
2022/07/06 12:07:04;;;;;;;5.88;0.80;;;21.50;98.90;;;;;;5071862;28;20113;-69
2022/07/06 12:09:34;;;;;;;3.75;0.68;;;21.30;99.00;;;;;;5073320;28;20477;-70
2022/07/06 12:12:02;;;;;;;2.53;0.60;;;21.20;98.90;;;;;;5073107;28;20049;-69
2022/07/06 12:14:29;;;;;;;0.45;0.45;;;21.00;99.00;;;;;;5071425;28;20047;-69
2022/07/06 12:16:55;;;;;;;4.78;0.75;;;20.90;99.20;;;;;;5071642;28;20053;-70
2022/07/06 12:19:24;;;;;;;3.40;0.47;;;20.70;99.90;;;;;;5072962;28;20123;-69
2022/07/06 12:21:51;;;;;;;4.70;0.90;;;20.70;99.90;;;;;;5072908;28;20056;-70
2022/07/06 12:24:25;;;;;;;2.50;0.60;;;20.90;99.90;;;;;;5071591;28;20075;-70
2022/07/06 12:26:53;;;;;;;4.07;0.68;;;21.10;99.90;;;;;;5072841;28;20048;-70
2022/07/06 12:29:19;;;;;;;4.57;0.70;;;21.20;99.60;;;;;;5071559;28;20036;-70
2022/07/06 12:31:56;;;;;;;7.82;0.80;;;21.20;99.40;;;;;;5072966;28;20085;-70
2022/07/06 12:34:24;;;;;;;1.25;0.68;;;21.10;99.60;;;;;;5072699;28;20081;-70
2022/07/06 12:36:52;;;;;;;2.25;0.60;;;21.10;99.40;;;;;;5071627;28;20120;-70
2022/07/06 12:39:23;;;;;;;2.78;0.90;;;21.20;99.30;;;;;;5072690;28;20041;-69
2022/07/06 12:41:49;;;;;;;3.80;0.70;;;21.10;99.60;;;;;;5059774;28;20044;-69
2022/07/06 12:44:18;;;;;;;4.57;0.70;;;21.20;99.40;;;;;;5079964;28;20099;-68
2022/07/06 12:46:44;;;;;;;3.15;0.68;;;21.20;99.30;;;;;;5081110;28;20055;-67
2022/07/06 12:49:22;;;;;;;2.67;0.70;;;21.30;99.00;;;;;;5083002;28;20414;-69